Time;durP1;ratioP1;P1;durP2;ratioP2;P2;SDS_P1;SDS_P2;PMS_P1;PMS_P2;Temp;Humidity;BMP_temperature;BMP_pressure;BME280_temperature;BME280_humidity;BME280_pressure;Samples;Min_cycle;Max_cycle;Signal;HPM_P1;HPM_P2
2023/03/19 00:01:24;;;;;;;13.18;11.18;;;;;;;10.81;nan;100907.03;4992618;28;20037;-47
2023/03/19 00:03:50;;;;;;;13.95;11.75;;;;;;;10.79;nan;100898.31;4993077;28;20324;-49
2023/03/19 00:06:15;;;;;;;13.82;12.30;;;;;;;10.45;nan;100845.03;4993173;28;20111;-50
2023/03/19 00:08:41;;;;;;;13.20;11.88;;;;;;;10.33;nan;100833.13;4990915;28;20440;-50
2023/03/19 00:11:11;;;;;;;14.15;12.63;;;;;;;10.81;nan;100924.59;4991506;28;20034;-51
2023/03/19 00:13:36;;;;;;;16.50;14.53;;;;;;;10.77;nan;100921.19;4993230;28;20061;-52
2023/03/19 00:16:02;;;;;;;17.55;14.15;;;;;;;10.78;nan;100922.91;4992984;28;20367;-51
2023/03/19 00:18:27;;;;;;;17.35;15.55;;;;;;;10.79;nan;100926.41;4992055;28;20034;-55
2023/03/19 00:20:52;;;;;;;17.00;15.40;;;;;;;10.71;nan;100926.66;4991626;28;20038;-52
2023/03/19 00:23:18;;;;;;;20.58;17.15;;;;;;;10.33;nan;100864.69;4992864;28;20034;-52
2023/03/19 00:25:43;;;;;;;20.45;18.17;;;;;;;10.13;nan;100854.75;4989504;28;20058;-52
2023/03/19 00:28:08;;;;;;;19.75;17.70;;;;;;;10.63;nan;100926.03;4992741;28;20035;-56
2023/03/19 00:30:34;;;;;;;21.20;19.08;;;;;;;10.57;nan;100924.44;4990708;28;20126;-51
2023/03/19 00:33:00;;;;;;;21.50;19.13;;;;;;;10.54;nan;100936.84;4989704;28;20120;-55
2023/03/19 00:35:25;;;;;;;22.38;20.17;;;;;;;10.50;nan;100930.81;4992908;28;20117;-50
2023/03/19 00:37:51;;;;;;;21.65;19.50;;;;;;;10.53;nan;100927.25;4992628;28;20062;-51
2023/03/19 00:40:17;;;;;;;21.63;19.42;;;;;;;10.16;nan;100862.56;4991595;28;20379;-55
2023/03/19 00:42:43;;;;;;;23.83;19.90;;;;;;;10.51;nan;100931.66;4992676;28;20034;-52
2023/03/19 00:45:10;;;;;;;21.83;19.65;;;;;;;10.35;nan;100915.50;4992639;28;20129;-54
2023/03/19 00:47:35;;;;;;;21.83;19.55;;;;;;;10.41;nan;100936.38;4992351;28;20030;-51
2023/03/19 00:50:01;;;;;;;19.90;17.92;;;;;;;10.34;nan;100929.56;4991263;28;20038;-53
2023/03/19 00:52:26;;;;;;;21.13;18.88;;;;;;;10.39;nan;100932.91;4991949;28;20133;-52
2023/03/19 00:54:52;;;;;;;20.95;18.85;;;;;;;10.30;nan;100925.31;4991283;28;20133;-53
2023/03/19 00:57:17;;;;;;;23.30;19.75;;;;;;;10.28;nan;100940.25;4992117;28;20038;-52
2023/03/19 00:59:42;;;;;;;20.77;18.67;;;;;;;10.16;nan;100936.22;4991172;28;20179;-50
2023/03/19 01:02:08;;;;;;;22.23;19.77;;;;;;;9.22;nan;100832.00;4992386;28;20034;-48
2023/03/19 01:04:33;;;;;;;22.27;20.00;;;;;;;9.94;nan;100950.00;4992229;28;20039;-49
2023/03/19 01:06:59;;;;;;;22.52;19.40;;;;;;;9.84;nan;100946.75;4992015;28;20508;-52
2023/03/19 01:09:25;;;;;;;21.92;19.50;;;;;;;9.79;nan;100955.66;4992221;28;20385;-53
2023/03/19 01:11:50;;;;;;;21.35;18.02;;;;;;;9.69;nan;100938.44;4991227;28;20038;-48
2023/03/19 01:14:16;;;;;;;22.20;18.05;;;;;;;9.63;nan;100943.84;4992368;28;20065;-51
2023/03/19 01:16:42;;;;;;;22.77;17.90;;;;;;;9.07;nan;100858.66;4992290;28;20041;-49
2023/03/19 01:19:07;;;;;;;20.42;18.08;;;;;;;9.30;nan;100916.69;4990670;28;20126;-54
2023/03/19 01:21:34;;;;;;;24.15;17.90;;;;;;;8.88;nan;100860.88;4991015;28;20073;-53
2023/03/19 01:23:59;;;;;;;24.80;18.08;;;;;;;9.36;nan;100961.19;4991923;28;20071;-53
2023/03/19 01:26:26;;;;;;;23.38;18.35;;;;;;;9.36;nan;100956.81;4991779;28;20282;-52
2023/03/19 01:28:51;;;;;;;25.05;18.10;;;;;;;9.01;nan;100886.81;4990862;28;20423;-53
2023/03/19 01:31:17;;;;;;;27.00;19.55;;;;;;;9.40;nan;100949.69;4991268;28;20046;-52
2023/03/19 01:33:42;;;;;;;26.75;19.05;;;;;;;9.45;nan;100953.97;4992078;28;20493;-54
2023/03/19 01:36:08;;;;;;;27.80;20.45;;;;;;;9.01;nan;100872.81;4992157;28;20089;-56
2023/03/19 01:38:34;;;;;;;35.60;19.50;;;;;;;9.06;nan;100891.91;4991858;28;20037;-53
2023/03/19 01:40:59;;;;;;;24.50;19.73;;;;;;;9.35;nan;100948.97;4992146;28;20045;-54
2023/03/19 01:43:27;;;;;;;26.42;20.45;;;;;;;8.86;nan;100878.44;4992180;28;20053;-53
2023/03/19 01:45:56;;;;;;;29.08;20.40;;;;;;;9.13;nan;100932.91;4989666;28;20073;-49
2023/03/19 01:48:35;;;;;;;28.30;19.08;;;;;;;8.98;nan;100917.50;4990813;28;20030;-50
2023/03/19 01:51:00;;;;;;;27.27;19.95;;;;;;;9.01;nan;100949.81;4990322;28;20051;-52
2023/03/19 01:53:29;;;;;;;26.35;19.27;;;;;;;9.07;nan;100968.94;4990553;28;20177;-49
2023/03/19 01:56:01;;;;;;;26.77;19.40;;;;;;;9.00;nan;100957.72;4991826;28;20121;-50
2023/03/19 01:58:26;;;;;;;24.52;19.13;;;;;;;8.53;nan;100884.47;4990501;28;20045;-53
2023/03/19 02:00:52;;;;;;;28.67;21.05;;;;;;;8.87;nan;100965.00;4991798;28;20031;-51
2023/03/19 02:03:17;;;;;;;29.27;20.60;;;;;;;8.42;nan;100882.13;4990821;28;20047;-53
2023/03/19 02:05:44;;;;;;;27.45;20.33;;;;;;;8.39;nan;100897.91;4990382;28;20034;-50
2023/03/19 02:08:11;;;;;;;30.38;21.05;;;;;;;8.69;nan;100959.34;4992235;28;20125;-55
2023/03/19 02:10:37;;;;;;;29.92;21.10;;;;;;;8.39;nan;100909.28;4994005;28;20034;-49
2023/03/19 02:13:03;;;;;;;28.17;22.00;;;;;;;8.71;nan;100963.66;4977864;28;20038;-52
2023/03/19 02:15:28;;;;;;;31.65;21.55;;;;;;;8.68;nan;100954.97;4995115;28;20042;-49
2023/03/19 02:17:53;;;;;;;31.55;21.98;;;;;;;8.68;nan;100962.84;4995282;28;20062;-53
2023/03/19 02:20:44;;;;;;;32.08;21.52;;;;;;;8.46;nan;100942.31;4992938;28;20532;-55
2023/03/19 02:23:41;;;;;;;34.67;20.95;;;;;;;8.55;nan;100956.16;4993806;28;20418;-54
2023/03/19 02:26:14;;;;;;;28.88;20.27;;;;;;;8.41;nan;100954.69;4977483;28;20026;-52
2023/03/19 02:28:43;;;;;;;30.95;19.67;;;;;;;8.39;nan;100961.75;4994694;28;20062;-47
2023/03/19 02:31:09;;;;;;;26.02;18.83;;;;;;;8.40;nan;100958.22;4993666;28;20034;-51
2023/03/19 02:33:35;;;;;;;26.42;19.02;;;;;;;7.99;nan;100891.78;4993860;28;20030;-51
2023/03/19 02:36:01;;;;;;;28.42;19.85;;;;;;;8.25;nan;100942.78;4992941;28;20414;-51
2023/03/19 02:38:29;;;;;;;29.00;19.40;;;;;;;8.40;nan;100950.38;4993421;28;20042;-52
2023/03/19 02:41:07;;;;;;;27.92;18.65;;;;;;;7.88;nan;100878.91;4993432;28;20105;-52
2023/03/19 02:43:34;;;;;;;27.27;18.02;;;;;;;8.40;nan;100978.34;4994955;28;20022;-51
2023/03/19 02:46:01;;;;;;;26.05;18.63;;;;;;;7.87;nan;100882.41;4993493;28;20376;-52
2023/03/19 02:48:26;;;;;;;25.10;16.75;;;;;;;8.39;nan;100971.34;4993383;28;20073;-53
2023/03/19 02:50:52;;;;;;;22.42;17.00;;;;;;;7.91;nan;100891.94;4993360;28;20062;-51
2023/03/19 02:53:17;;;;;;;22.23;17.40;;;;;;;8.37;nan;100968.78;4993470;28;20133;-52
2023/03/19 02:55:42;;;;;;;25.13;18.08;;;;;;;8.37;nan;100973.16;4994392;28;20065;-56
2023/03/19 02:58:08;;;;;;;35.15;20.48;;;;;;;8.42;nan;100964.28;4992862;28;20049;-52
2023/03/19 03:00:34;;;;;;;26.30;18.35;;;;;;;8.48;nan;100973.78;4993211;28;20149;-49
2023/03/19 03:03:00;;;;;;;25.65;18.30;;;;;;;8.47;nan;100983.41;4994259;28;20065;-50
2023/03/19 03:05:25;;;;;;;23.58;19.13;;;;;;;8.49;nan;100965.88;4977096;28;20053;-53
2023/03/19 03:07:50;;;;;;;25.60;19.90;;;;;;;8.16;nan;100911.50;4994103;28;20466;-53
2023/03/19 03:10:16;;;;;;;25.92;18.73;;;;;;;8.56;nan;100977.09;4975783;28;20132;-54
2023/03/19 03:12:42;;;;;;;23.75;19.98;;;;;;;8.62;nan;100976.09;4994411;28;20034;-51
2023/03/19 03:15:08;;;;;;;26.58;20.52;;;;;;;8.65;nan;100968.16;4994034;28;20061;-53
2023/03/19 03:17:41;;;;;;;26.38;19.80;;;;;;;8.71;nan;100965.41;4993051;28;20034;-52
2023/03/19 03:20:08;;;;;;;29.65;22.27;;;;;;;8.70;nan;100956.66;4993871;28;20031;-50
2023/03/19 03:22:34;;;;;;;33.63;24.65;;;;;;;8.33;nan;100901.53;4992873;28;20031;-51
2023/03/19 03:25:00;;;;;;;38.00;27.35;;;;;;;8.79;nan;100966.09;4994051;28;20430;-51
2023/03/19 03:27:25;;;;;;;34.67;26.98;;;;;;;8.30;nan;100885.88;4991651;28;20057;-51
2023/03/19 03:29:51;;;;;;;36.08;26.80;;;;;;;8.40;nan;100905.78;4993774;28;20038;-53
2023/03/19 03:32:16;;;;;;;35.10;27.48;;;;;;;8.81;nan;100966.94;4993748;28;20038;-53
2023/03/19 03:34:42;;;;;;;39.40;28.23;;;;;;;8.83;nan;100959.88;4993723;28;20038;-52
2023/03/19 03:37:08;;;;;;;35.38;27.55;;;;;;;8.39;nan;100871.69;4992642;28;20096;-52
2023/03/19 03:39:33;;;;;;;36.60;27.52;;;;;;;8.44;nan;100883.78;4993642;28;20039;-54
2023/03/19 03:41:58;;;;;;;35.72;27.08;;;;;;;8.40;nan;100876.91;4993974;28;21418;-51
2023/03/19 03:44:24;;;;;;;32.85;25.90;;;;;;;8.89;nan;100962.34;4993349;28;20049;-51
2023/03/19 03:46:49;;;;;;;42.83;25.95;;;;;;;8.37;nan;100866.50;4993349;28;20045;-51
2023/03/19 03:49:14;;;;;;;35.60;27.83;;;;;;;8.91;nan;100955.31;4992159;28;20038;-49
2023/03/19 03:51:40;;;;;;;40.85;31.00;;;;;;;8.93;nan;100966.66;4993196;28;20096;-57
2023/03/19 03:54:06;;;;;;;39.75;30.73;;;;;;;8.90;nan;100966.72;4993339;28;20038;-54
2023/03/19 03:56:32;;;;;;;39.05;30.30;;;;;;;8.96;nan;100969.22;4993361;28;20493;-49
2023/03/19 03:58:58;;;;;;;41.38;32.72;;;;;;;8.95;nan;100970.09;4993586;28;20556;-47
2023/03/19 04:01:23;;;;;;;43.25;33.72;;;;;;;8.76;nan;100940.78;4992630;28;20074;-51
2023/03/19 04:03:49;;;;;;;46.25;37.38;;;;;;;8.90;nan;100962.31;4993456;28;20118;-52
2023/03/19 04:06:16;;;;;;;50.00;37.47;;;;;;;8.86;nan;100972.94;4993117;28;20070;-51
2023/03/19 04:08:42;;;;;;;50.85;37.97;;;;;;;8.85;nan;100979.06;4993095;28;20540;-50
2023/03/19 04:11:08;;;;;;;53.75;39.80;;;;;;;8.78;nan;100974.88;4993375;28;20105;-51
2023/03/19 04:13:35;;;;;;;54.75;37.67;;;;;;;8.30;nan;100909.47;4993135;28;20045;-51
2023/03/19 04:16:05;;;;;;;53.38;38.35;;;;;;;8.79;nan;101003.69;4990879;28;20034;-50
2023/03/19 04:18:31;;;;;;;55.33;38.63;;;;;;;8.79;nan;101000.19;4992950;28;20054;-52
2023/03/19 04:20:56;;;;;;;51.05;37.00;;;;;;;8.76;nan;100984.53;4992994;28;20112;-47
2023/03/19 04:23:22;;;;;;;52.63;37.92;;;;;;;8.64;nan;100969.09;4992911;28;20121;-51
2023/03/19 04:25:48;;;;;;;52.47;37.78;;;;;;;8.60;nan;100970.91;4993121;28;20404;-50
2023/03/19 04:28:13;;;;;;;51.55;37.75;;;;;;;8.70;nan;100982.91;4993054;28;20125;-52
2023/03/19 04:30:38;;;;;;;51.60;37.08;;;;;;;8.72;nan;100981.13;4991235;28;20045;-52
2023/03/19 04:33:04;;;;;;;54.10;37.15;;;;;;;8.74;nan;101007.31;4993007;28;20096;-53
2023/03/19 04:35:30;;;;;;;47.30;35.28;;;;;;;8.64;nan;100984.81;4990591;28;20114;-52
2023/03/19 04:37:55;;;;;;;53.58;37.15;;;;;;;8.73;nan;101001.22;4992797;28;20038;-52
2023/03/19 04:40:20;;;;;;;50.13;34.35;;;;;;;8.74;nan;101002.06;4992929;28;20038;-53
2023/03/19 04:42:47;;;;;;;54.13;36.45;;;;;;;8.33;nan;100942.63;4992686;28;20046;-52
2023/03/19 04:45:12;;;;;;;53.13;36.42;;;;;;;8.68;nan;101015.31;4992872;28;20136;-52
2023/03/19 04:47:38;;;;;;;52.70;36.63;;;;;;;8.21;nan;100953.34;4992515;28;20038;-50
2023/03/19 04:50:05;;;;;;;52.35;36.75;;;;;;;8.56;nan;101011.22;4991104;28;20033;-50
2023/03/19 04:52:32;;;;;;;49.85;34.60;;;;;;;8.58;nan;101017.28;4990086;28;20560;-50
2023/03/19 04:54:57;;;;;;;51.15;35.22;;;;;;;8.60;nan;101014.63;4991448;28;20141;-49
2023/03/19 04:57:22;;;;;;;51.08;34.65;;;;;;;8.47;nan;101008.78;4991211;28;20038;-52
2023/03/19 04:59:48;;;;;;;52.28;37.03;;;;;;;8.45;nan;101011.44;4992325;28;20042;-49
2023/03/19 05:02:13;;;;;;;54.58;36.35;;;;;;;8.55;nan;101032.25;4992502;28;20414;-51
2023/03/19 05:04:38;;;;;;;56.80;36.63;;;;;;;8.14;nan;100943.91;4992179;28;20134;-53
2023/03/19 05:07:04;;;;;;;61.47;36.45;;;;;;;8.34;nan;100994.22;4992084;28;20034;-50
2023/03/19 05:09:29;;;;;;;58.53;35.30;;;;;;;8.06;nan;100951.03;4991659;28;20042;-53
2023/03/19 05:11:55;;;;;;;61.50;37.63;;;;;;;8.28;nan;101003.06;4992396;28;20233;-53
2023/03/19 05:14:21;;;;;;;62.28;37.22;;;;;;;8.45;nan;101042.94;4990162;28;20042;-49
2023/03/19 05:16:47;;;;;;;61.28;35.75;;;;;;;7.97;nan;100961.72;4974776;28;20056;-48
2023/03/19 05:19:12;;;;;;;66.05;36.50;;;;;;;7.84;nan;100941.00;4990858;28;20040;-48
2023/03/19 05:21:37;;;;;;;64.28;35.33;;;;;;;8.03;nan;100975.56;4991998;28;20122;-51
2023/03/19 05:24:03;;;;;;;67.72;36.70;;;;;;;8.42;nan;101053.47;4992221;28;20038;-52
2023/03/19 05:26:28;;;;;;;65.07;35.17;;;;;;;7.91;nan;100966.19;4992173;28;20125;-49
2023/03/19 05:28:54;;;;;;;69.32;35.75;;;;;;;8.36;nan;101050.09;4990775;28;20039;-54
2023/03/19 05:31:19;;;;;;;68.20;35.53;;;;;;;8.35;nan;101056.25;4989852;28;20030;-50
2023/03/19 05:33:45;;;;;;;65.97;34.55;;;;;;;8.37;nan;101059.72;4992002;28;20053;-50
2023/03/19 05:36:11;;;;;;;65.35;36.90;;;;;;;8.03;nan;101011.38;4992035;28;20034;-50
2023/03/19 05:38:36;;;;;;;68.57;34.60;;;;;;;8.32;nan;101056.28;4992277;28;20034;-51
2023/03/19 05:41:05;;;;;;;72.53;35.40;;;;;;;8.23;nan;101046.81;4992102;28;20437;-51
2023/03/19 05:43:31;;;;;;;69.03;34.92;;;;;;;8.21;nan;101045.13;4995868;28;20117;-51
2023/03/19 05:45:57;;;;;;;68.03;33.90;;;;;;;8.32;nan;101080.78;4995581;28;20143;-51
2023/03/19 05:48:23;;;;;;;70.35;33.40;;;;;;;7.85;nan;100992.50;4993703;28;20035;-50
2023/03/19 05:50:48;;;;;;;72.35;32.70;;;;;;;7.81;nan;100985.59;4995624;28;20081;-49
2023/03/19 05:53:14;;;;;;;67.78;33.20;;;;;;;8.29;nan;101087.84;4996043;28;20085;-53
2023/03/19 05:55:39;;;;;;;74.15;32.97;;;;;;;7.80;nan;101009.22;4994772;28;20398;-50
2023/03/19 05:58:06;;;;;;;75.35;33.78;;;;;;;7.75;nan;100997.94;4995630;28;20038;-53
2023/03/19 06:00:32;;;;;;;72.82;33.72;;;;;;;8.25;nan;101084.38;4995678;28;20031;-48
2023/03/19 06:02:57;;;;;;;73.88;33.72;;;;;;;7.72;nan;100998.88;4995682;28;20037;-50
2023/03/19 06:05:23;;;;;;;75.70;35.35;;;;;;;7.68;nan;100984.09;4994658;28;20042;-51
2023/03/19 06:07:49;;;;;;;76.88;34.63;;;;;;;8.27;nan;101076.47;4994161;28;20038;-51
2023/03/19 06:10:14;;;;;;;81.57;34.60;;;;;;;7.77;nan;100999.66;4995442;28;20120;-49
2023/03/19 06:12:40;;;;;;;87.22;36.13;;;;;;;7.88;nan;101020.44;4995459;28;20109;-50
2023/03/19 06:15:07;;;;;;;83.22;34.83;;;;;;;8.24;nan;101082.66;4995361;28;20146;-50
2023/03/19 06:17:33;;;;;;;82.70;34.85;;;;;;;8.22;nan;101081.81;4995228;28;20038;-49
2023/03/19 06:19:58;;;;;;;86.72;36.22;;;;;;;8.24;nan;101085.28;4995120;28;20036;-50
2023/03/19 06:22:24;;;;;;;82.57;35.50;;;;;;;8.03;nan;101034.97;4994571;28;20118;-52
2023/03/19 06:24:50;;;;;;;83.93;35.60;;;;;;;8.28;nan;101088.75;4994084;28;20117;-52
2023/03/19 06:27:15;;;;;;;80.95;34.97;;;;;;;8.30;nan;101094.81;4994844;28;20216;-49
2023/03/19 06:29:41;;;;;;;84.45;35.85;;;;;;;8.30;nan;101094.81;4995397;28;20034;-54
2023/03/19 06:32:06;;;;;;;83.22;35.22;;;;;;;7.83;nan;101019.63;4995121;28;20035;-50
2023/03/19 06:34:32;;;;;;;81.28;36.95;;;;;;;8.34;nan;101107.00;4994694;28;20038;-47
2023/03/19 06:36:57;;;;;;;89.25;37.03;;;;;;;8.37;nan;101107.81;4994817;28;20038;-51
2023/03/19 06:39:22;;;;;;;82.15;37.20;;;;;;;8.46;nan;101112.84;4994295;28;20118;-51
2023/03/19 06:41:48;;;;;;;92.47;39.97;;;;;;;8.07;nan;101039.28;5009919;28;20054;-52
2023/03/19 06:44:13;;;;;;;87.20;38.80;;;;;;;8.44;nan;101098.03;4994692;28;20495;-53
2023/03/19 06:46:39;;;;;;;95.57;39.58;;;;;;;8.59;nan;101118.72;4994889;28;20035;-52
2023/03/19 06:49:05;;;;;;;89.15;37.92;;;;;;;8.63;nan;101114.28;4994807;28;20035;-50
2023/03/19 06:51:31;;;;;;;87.78;38.55;;;;;;;8.52;nan;101101.38;4994481;28;20050;-51
2023/03/19 06:53:56;;;;;;;93.38;39.90;;;;;;;8.70;nan;101123.78;4994120;28;20045;-50
2023/03/19 06:56:21;;;;;;;100.32;41.40;;;;;;;8.58;nan;101098.63;4993869;28;20038;-50
2023/03/19 06:58:46;;;;;;;82.22;36.70;;;;;;;8.81;nan;101130.53;4994805;28;20339;-51
2023/03/19 07:01:12;;;;;;;92.63;38.15;;;;;;;8.83;nan;101128.75;4994462;28;20049;-52
2023/03/19 07:03:37;;;;;;;84.07;39.03;;;;;;;8.86;nan;101128.66;4994387;28;20042;-56
2023/03/19 07:06:03;;;;;;;96.10;40.15;;;;;;;8.41;nan;101046.50;4994629;28;20038;-51
2023/03/19 07:08:28;;;;;;;81.15;37.03;;;;;;;8.93;nan;101134.66;4994743;28;20124;-53
2023/03/19 07:11:02;;;;;;;76.75;35.90;;;;;;;8.78;nan;101116.59;4993160;28;20030;-54
2023/03/19 07:13:28;;;;;;;85.85;36.33;;;;;;;8.89;nan;101133.84;4993601;28;20238;-51
2023/03/19 07:15:53;;;;;;;79.15;33.55;;;;;;;8.51;nan;101062.06;4994386;28;20145;-51
2023/03/19 07:18:18;;;;;;;76.20;35.38;;;;;;;8.64;nan;101093.25;4992874;28;20038;-47
2023/03/19 07:20:44;;;;;;;77.85;34.85;;;;;;;8.90;nan;101142.59;4994192;28;20035;-54
2023/03/19 07:23:10;;;;;;;78.30;34.28;;;;;;;8.58;nan;101087.28;4993077;28;20173;-53
2023/03/19 07:25:35;;;;;;;76.78;35.00;;;;;;;8.55;nan;101085.59;4994266;28;20498;-52
2023/03/19 07:28:01;;;;;;;78.75;35.20;;;;;;;8.52;nan;101075.16;4993334;28;20343;-52
2023/03/19 07:30:26;;;;;;;80.68;35.70;;;;;;;9.00;nan;101165.13;4992773;28;20093;-50
2023/03/19 07:32:51;;;;;;;82.70;37.60;;;;;;;8.97;nan;101166.06;4992990;28;20500;-48
2023/03/19 07:35:17;;;;;;;71.85;34.88;;;;;;;8.53;nan;101086.47;4993379;28;20117;-50
2023/03/19 07:37:42;;;;;;;77.78;34.63;;;;;;;8.87;nan;101140.03;4993805;28;20378;-51
2023/03/19 07:40:08;;;;;;;69.95;31.98;;;;;;;8.84;nan;101134.84;4993684;28;20026;-52
2023/03/19 07:42:35;;;;;;;74.45;33.53;;;;;;;8.98;nan;101151.19;5008480;28;20156;-52
2023/03/19 07:45:02;;;;;;;74.22;34.63;;;;;;;8.59;nan;101078.50;4992368;28;20076;-50
2023/03/19 07:47:27;;;;;;;70.60;32.63;;;;;;;9.16;nan;101173.56;4991319;28;20046;-48
2023/03/19 07:49:53;;;;;;;72.80;33.83;;;;;;;8.76;nan;101102.63;4993847;28;20497;-51
2023/03/19 07:52:18;;;;;;;64.88;30.10;;;;;;;9.07;nan;101155.38;4993476;28;20478;-51
2023/03/19 07:54:43;;;;;;;64.68;30.98;;;;;;;9.11;nan;101154.44;5008459;28;20439;-49
2023/03/19 07:57:09;;;;;;;62.10;31.88;;;;;;;9.23;nan;101181.25;4993826;28;20034;-51
2023/03/19 07:59:35;;;;;;;62.40;31.55;;;;;;;8.66;nan;101077.50;4993353;28;20034;-50
2023/03/19 08:02:00;;;;;;;62.45;32.20;;;;;;;8.87;nan;101111.16;4993375;28;20128;-52
2023/03/19 08:04:26;;;;;;;68.30;34.50;;;;;;;9.33;nan;101197.69;4985463;28;20038;-52
2023/03/19 08:06:51;;;;;;;65.20;32.22;;;;;;;9.29;nan;101201.28;4991551;28;20378;-53
2023/03/19 08:09:16;;;;;;;65.53;33.83;;;;;;;9.27;nan;101193.44;4992892;28;20070;-51
2023/03/19 08:11:42;;;;;;;64.57;34.58;;;;;;;9.27;nan;101187.31;4991282;28;20030;-51
2023/03/19 08:14:07;;;;;;;63.80;34.40;;;;;;;9.30;nan;101198.63;4992942;28;20118;-52
2023/03/19 08:16:32;;;;;;;65.47;33.40;;;;;;;9.36;nan;101190.63;4991711;28;20038;-50
2023/03/19 08:18:57;;;;;;;60.00;32.53;;;;;;;9.04;nan;101137.94;4992505;28;20042;-50
2023/03/19 08:21:23;;;;;;;66.07;35.00;;;;;;;9.14;nan;101152.56;4991872;28;20064;-52
2023/03/19 08:23:48;;;;;;;64.88;34.28;;;;;;;9.07;nan;101142.25;4991433;28;20517;-52
2023/03/19 08:26:14;;;;;;;72.25;35.47;;;;;;;9.47;nan;101216.66;4991881;28;20478;-54
2023/03/19 08:28:39;;;;;;;66.78;34.65;;;;;;;9.51;nan;101223.59;4981857;28;20486;-53
2023/03/19 08:31:09;;;;;;;69.28;34.40;;;;;;;9.04;nan;101141.41;4980121;28;20049;-51
2023/03/19 08:33:34;;;;;;;66.65;34.28;;;;;;;9.46;nan;101222.81;4989548;28;20105;-53
2023/03/19 08:36:05;;;;;;;61.42;33.33;;;;;;;9.15;nan;101166.56;4991898;28;20121;-52
2023/03/19 08:38:31;;;;;;;;;;;;;;;9.55;nan;101233.13;4990250;28;20506;-50
2023/03/19 08:41:00;;;;;;;54.73;31.30;;;;;;;9.54;nan;101234.88;4991920;28;20021;-51
2023/03/19 08:43:26;;;;;;;63.92;33.85;;;;;;;9.13;nan;101161.38;4989153;28;20384;-49
2023/03/19 08:45:52;;;;;;;68.20;35.08;;;;;;;9.24;nan;101167.25;4991757;28;20057;-48
2023/03/19 08:48:17;;;;;;;70.03;36.50;;;;;;;9.68;nan;101245.09;4991350;28;20481;-52
2023/03/19 08:50:42;;;;;;;79.07;38.15;;;;;;;9.51;nan;101213.94;4991760;28;20041;-51
2023/03/19 08:53:08;;;;;;;75.32;38.08;;;;;;;9.67;nan;101242.50;4990025;28;20042;-50
2023/03/19 08:55:33;;;;;;;79.40;37.08;;;;;;;9.74;nan;101242.34;4990529;28;20045;-53
2023/03/19 08:57:58;;;;;;;83.15;39.05;;;;;;;9.58;nan;101227.78;4991338;28;20110;-51
2023/03/19 09:00:24;;;;;;;83.03;40.40;;;;;;;9.78;nan;101251.03;4986015;28;20065;-52
2023/03/19 09:02:49;;;;;;;84.40;38.22;;;;;;;9.75;nan;101244.03;4975502;28;20118;-51
2023/03/19 09:05:15;;;;;;;79.35;40.00;;;;;;;9.90;nan;101254.22;4991034;28;20061;-52
2023/03/19 09:07:40;;;;;;;76.88;38.25;;;;;;;9.88;nan;101255.16;5007168;28;20046;-52
2023/03/19 09:10:06;;;;;;;79.90;37.53;;;;;;;9.55;nan;101180.56;4985819;28;20125;-50
2023/03/19 09:12:31;;;;;;;81.05;37.60;;;;;;;9.51;nan;101169.28;4993470;28;20497;-53
2023/03/19 09:14:57;;;;;;;77.88;37.50;;;;;;;10.00;nan;101245.22;4974927;28;20039;-55
2023/03/19 09:17:22;;;;;;;82.18;38.13;;;;;;;9.72;nan;101177.56;4991839;28;20035;-51
2023/03/19 09:19:47;;;;;;;79.53;38.17;;;;;;;10.26;nan;101262.19;4992158;28;20037;-50
2023/03/19 09:22:13;;;;;;;79.45;37.22;;;;;;;10.24;nan;101262.22;4991938;28;20426;-53
2023/03/19 09:24:38;;;;;;;79.18;38.13;;;;;;;10.18;nan;101248.34;4990863;28;20461;-53
2023/03/19 09:27:04;;;;;;;77.25;36.83;;;;;;;10.33;nan;101264.66;4981364;28;20046;-54
2023/03/19 09:29:29;;;;;;;69.13;36.00;;;;;;;10.35;nan;101275.13;5004322;28;20363;-54
2023/03/19 09:31:55;;;;;;;72.85;36.35;;;;;;;10.27;nan;101263.91;5007706;28;20061;-55
2023/03/19 09:34:20;;;;;;;73.03;36.72;;;;;;;10.37;nan;101278.56;4991595;28;20031;-50
2023/03/19 09:36:45;;;;;;;74.45;37.03;;;;;;;10.38;nan;101289.06;4992319;28;20078;-54
2023/03/19 09:39:11;;;;;;;64.97;32.53;;;;;;;10.45;nan;101282.72;5007175;28;20034;-54
2023/03/19 09:41:58;;;;;;;59.35;29.52;;;;;;;10.01;nan;101206.66;4991285;28;20043;-54
2023/03/19 09:44:30;;;;;;;56.70;28.63;;;;;;;10.21;nan;101249.16;4992355;28;20047;-54
2023/03/19 09:47:31;;;;;;;55.22;28.75;;;;;;;10.63;nan;101310.38;4990642;28;20050;-50
2023/03/19 09:50:04;;;;;;;53.90;29.17;;;;;;;10.64;nan;101306.84;4991461;28;20534;-52
2023/03/19 09:52:50;;;;;;;52.28;28.40;;;;;;;10.66;nan;101321.69;4980134;28;20050;-53
2023/03/19 09:55:23;;;;;;;57.53;29.83;;;;;;;10.18;nan;101243.09;4987495;28;20255;-55
2023/03/19 09:57:49;;;;;;;59.28;31.33;;;;;;;10.29;nan;101262.09;4988972;28;20342;-51
2023/03/19 10:00:27;;;;;;;51.92;29.77;;;;;;;10.62;nan;101327.94;4990268;28;20027;-51
2023/03/19 10:02:53;;;;;;;55.45;29.73;;;;;;;10.60;nan;101332.38;4990251;28;20434;-54
2023/03/19 10:05:44;;;;;;;56.53;30.25;;;;;;;10.39;nan;101295.19;5005724;28;20496;-49
2023/03/19 10:08:28;;;;;;;57.42;29.33;;;;;;;10.53;nan;101333.44;4997874;28;20102;-52
2023/03/19 10:11:15;;;;;;;56.75;30.08;;;;;;;10.53;nan;101333.44;4991189;28;20338;-50
2023/03/19 10:14:04;;;;;;;52.45;30.63;;;;;;;10.49;nan;101330.91;4991461;28;20038;-51
2023/03/19 10:16:29;;;;;;;52.58;29.92;;;;;;;10.19;nan;101276.41;4984464;28;20049;-51
2023/03/19 10:18:58;;;;;;;60.65;31.35;;;;;;;10.52;nan;101336.09;4990728;28;20057;-52
2023/03/19 10:21:36;;;;;;;51.75;30.13;;;;;;;10.48;nan;101340.56;4986860;28;20046;-51
2023/03/19 10:24:14;;;;;;;55.38;31.15;;;;;;;10.44;nan;101354.72;4979810;28;20077;-55
2023/03/19 10:26:40;;;;;;;45.72;26.88;;;;;;;10.05;nan;101267.03;4990211;28;20046;-53
2023/03/19 10:29:15;;;;;;;57.75;29.40;;;;;;;10.47;nan;101336.22;4992401;28;20560;-52
2023/03/19 10:32:03;;;;;;;56.03;30.05;;;;;;;10.58;nan;101352.63;4991863;28;20084;-52
2023/03/19 10:34:44;;;;;;;41.85;24.50;;;;;;;10.68;nan;101363.78;4994487;28;20183;-52
2023/03/19 10:37:20;;;;;;;44.03;25.20;;;;;;;10.74;nan;101353.94;4994987;28;20030;-52
2023/03/19 10:39:48;;;;;;;38.30;24.65;;;;;;;10.78;nan;101352.13;4994035;28;20034;-55
2023/03/19 10:42:31;;;;;;;45.58;25.67;;;;;;;10.83;nan;101359.91;4992859;28;20121;-53
2023/03/19 10:45:10;;;;;;;42.65;27.02;;;;;;;10.86;nan;101360.69;4993720;28;20030;-55
2023/03/19 10:47:40;;;;;;;42.13;28.33;;;;;;;10.85;nan;101374.78;4992385;28;20069;-54
2023/03/19 10:50:06;;;;;;;44.90;27.98;;;;;;;10.92;nan;101350.00;4995026;28;20034;-54
2023/03/19 10:52:36;;;;;;;45.85;28.08;;;;;;;10.91;nan;101350.03;4993182;28;20062;-53
2023/03/19 10:55:25;;;;;;;39.35;26.33;;;;;;;10.94;nan;101345.56;4977058;28;20125;-50
2023/03/19 10:58:05;;;;;;;42.25;25.50;;;;;;;10.85;nan;101332.63;4985705;28;20046;-52
2023/03/19 11:00:32;;;;;;;40.42;28.42;;;;;;;10.71;nan;101305.78;4993678;28;20122;-52
2023/03/19 11:03:00;;;;;;;40.83;29.83;;;;;;;10.94;nan;101348.22;4993790;28;20053;-52
2023/03/19 11:05:28;;;;;;;44.15;30.05;;;;;;;10.65;nan;101287.53;4992346;28;20050;-54
2023/03/19 11:07:56;;;;;;;44.00;27.80;;;;;;;11.03;nan;101371.66;4989461;28;20509;-52
2023/03/19 11:10:23;;;;;;;47.08;29.13;;;;;;;10.63;nan;101289.31;4986444;28;20030;-52
2023/03/19 11:12:57;;;;;;;43.63;28.15;;;;;;;11.09;nan;101371.50;4991180;28;20096;-52
2023/03/19 11:15:27;;;;;;;48.25;27.00;;;;;;;10.76;nan;101308.31;4991552;28;20043;-52
2023/03/19 11:17:58;;;;;;;39.17;25.73;;;;;;;10.64;nan;101291.91;4991845;28;20125;-51
2023/03/19 11:20:35;;;;;;;41.83;25.47;;;;;;;10.63;nan;101294.56;4993554;28;20092;-51
2023/03/19 11:23:06;;;;;;;36.15;24.67;;;;;;;11.02;nan;101376.97;4976988;28;20029;-54
2023/03/19 11:25:37;;;;;;;48.60;26.40;;;;;;;10.68;nan;101296.19;4994234;28;20081;-51
2023/03/19 11:28:14;;;;;;;35.13;23.48;;;;;;;10.69;nan;101291.78;4991574;28;20089;-50
2023/03/19 11:30:52;;;;;;;40.55;24.73;;;;;;;11.23;nan;101379.94;4991988;28;20045;-50
2023/03/19 11:33:32;;;;;;;36.47;22.55;;;;;;;11.42;nan;101380.28;4993241;28;20490;-54